International Virtual Aviation Organisation

Eastern Europe and Northern Asia MCD

 
UAKK 121230Z 06008MPS CAVOK 16/M06 Q1028 R05/0///70 NOSIG RMK QFE723/0964
QNH:(hPa/inHg/mmHg)1028 / 30.36 / 771
QFE:(hPa/inHg/mmHg)963 / 28.42 / 722
Temperature16
Dew Point-6
Visibility> 10000
WeatherCAVOK
Cloud Cover
Transition Height10000 m./34600 ft.
Transition LevelFL360
SQUAWK